Chetopa, Kansas
Current Conditions -  °F | °C
As of 2:52 AM on Monday 20 Oct 2014 (Local Time) from KCFV Reporting Station
Overcast Overcast  
Wind Chill: 58°   Ceiling: 2600
Heat Index: 58°   Visibility: 10mi
Dew Point: 55°   Wind: 3mph
Humidity: 90%   Direction: 150°SSE
Pressure: 30.04"   Gusts: NA
Location:  37.04°N, 95.09°W
Report Text: KCFV 200752Z AUTO 15003KT 10SM OVC026 14/13 A3004 RMK AO2 SLP169 T01440128
Loading
Personal Weather Stations






























Interactive Weather Map
Tropical Storm Tracking
New forecast layout! Learn more

10-Day Weather Forecast

Advertisements
Track Severe Weather on mobile